sensor_id;sensor_type;location;lat;lon;timestamp;pressure;altitude;pressure_sealevel;temperature;humidity
54994;BME280;40891;47.242;8.648;2023-07-30T00:01:39;96135.72;;;18.75;100.00
54994;BME280;40891;47.242;8.648;2023-07-30T00:04:05;96149.81;;;18.70;100.00
54994;BME280;40891;47.242;8.648;2023-07-30T00:06:30;96150.06;;;18.72;100.00
54994;BME280;40891;47.242;8.648;2023-07-30T00:08:55;96131.09;;;18.72;100.00
54994;BME280;40891;47.242;8.648;2023-07-30T00:11:21;96140.06;;;18.76;100.00
54994;BME280;40891;47.242;8.648;2023-07-30T00:13:46;96133.94;;;18.78;100.00
54994;BME280;40891;47.242;8.648;2023-07-30T00:16:11;96149.81;;;18.75;100.00
54994;BME280;40891;47.242;8.648;2023-07-30T00:18:37;96142.63;;;18.74;100.00
54994;BME280;40891;47.242;8.648;2023-07-30T00:21:02;96147.75;;;18.70;100.00
54994;BME280;40891;47.242;8.648;2023-07-30T00:23:27;96151.84;;;18.64;100.00
54994;BME280;40891;47.242;8.648;2023-07-30T00:25:52;96156.44;;;18.56;100.00
54994;BME280;40891;47.242;8.648;2023-07-30T00:28:18;96151.84;;;18.47;100.00
54994;BME280;40891;47.242;8.648;2023-07-30T00:30:43;96160.28;;;18.53;100.00
54994;BME280;40891;47.242;8.648;2023-07-30T00:33:08;96157.72;;;18.38;100.00
54994;BME280;40891;47.242;8.648;2023-07-30T00:35:34;96148.47;;;18.32;100.00
54994;BME280;40891;47.242;8.648;2023-07-30T00:37:59;96154.59;;;18.25;100.00
54994;BME280;40891;47.242;8.648;2023-07-30T00:40:24;96156.91;;;18.21;100.00
54994;BME280;40891;47.242;8.648;2023-07-30T00:42:50;96154.88;;;18.38;100.00
54994;BME280;40891;47.242;8.648;2023-07-30T00:45:15;96156.94;;;18.43;100.00
54994;BME280;40891;47.242;8.648;2023-07-30T00:47:41;96153.34;;;18.37;100.00
54994;BME280;40891;47.242;8.648;2023-07-30T00:50:07;96154.13;;;18.43;100.00
54994;BME280;40891;47.242;8.648;2023-07-30T00:52:33;96154.38;;;18.45;100.00
54994;BME280;40891;47.242;8.648;2023-07-30T00:55:01;96152.63;;;18.64;100.00
54994;BME280;40891;47.242;8.648;2023-07-30T00:57:27;96167.47;;;18.59;100.00
54994;BME280;40891;47.242;8.648;2023-07-30T00:59:53;96171.06;;;18.60;100.00
54994;BME280;40891;47.242;8.648;2023-07-30T01:02:19;96174.13;;;18.56;100.00
54994;BME280;40891;47.242;8.648;2023-07-30T01:04:44;96179.78;;;18.62;100.00
54994;BME280;40891;47.242;8.648;2023-07-30T01:07:10;96186.94;;;18.79;100.00
54994;BME280;40891;47.242;8.648;2023-07-30T01:09:36;96192.31;;;18.77;100.00
54994;BME280;40891;47.242;8.648;2023-07-30T01:12:02;96182.84;;;18.75;100.00
54994;BME280;40891;47.242;8.648;2023-07-30T01:14:28;96180.28;;;18.82;100.00
54994;BME280;40891;47.242;8.648;2023-07-30T01:16:54;96185.66;;;18.80;100.00
54994;BME280;40891;47.242;8.648;2023-07-30T01:19:19;96179.25;;;18.85;100.00
54994;BME280;40891;47.242;8.648;2023-07-30T01:21:44;96179.00;;;18.83;100.00
54994;BME280;40891;47.242;8.648;2023-07-30T01:24:10;96173.63;;;18.80;100.00
54994;BME280;40891;47.242;8.648;2023-07-30T01:27:02;96155.97;;;18.90;100.00
54994;BME280;40891;47.242;8.648;2023-07-30T01:29:35;96152.13;;;18.88;100.00
54994;BME280;40891;47.242;8.648;2023-07-30T01:32:05;96159.78;;;18.87;100.00
54994;BME280;40891;47.242;8.648;2023-07-30T01:34:34;96149.78;;;18.92;100.00
54994;BME280;40891;47.242;8.648;2023-07-30T01:37:00;96156.44;;;18.89;100.00
54994;BME280;40891;47.242;8.648;2023-07-30T01:39:26;96165.94;;;18.91;100.00
54994;BME280;40891;47.242;8.648;2023-07-30T01:41:55;96171.81;;;18.82;100.00
54994;BME280;40891;47.242;8.648;2023-07-30T01:44:21;96166.97;;;18.83;100.00
54994;BME280;40891;47.242;8.648;2023-07-30T01:46:46;96155.97;;;18.90;100.00
54994;BME280;40891;47.242;8.648;2023-07-30T01:49:12;96157.22;;;18.89;100.00
54994;BME280;40891;47.242;8.648;2023-07-30T01:51:37;96148.28;;;18.85;100.00
54994;BME280;40891;47.242;8.648;2023-07-30T01:54:02;96155.94;;;18.79;100.00
54994;BME280;40891;47.242;8.648;2023-07-30T01:56:28;96144.94;;;18.76;100.00
54994;BME280;40891;47.242;8.648;2023-07-30T01:58:53;96157.22;;;18.67;100.00
54994;BME280;40891;47.242;8.648;2023-07-30T02:01:18;96151.34;;;18.65;100.00
54994;BME280;40891;47.242;8.648;2023-07-30T02:03:44;96158.50;;;18.72;100.00
54994;BME280;40891;47.242;8.648;2023-07-30T02:06:09;96154.16;;;18.71;100.00
54994;BME280;40891;47.242;8.648;2023-07-30T02:08:36;96155.94;;;18.79;100.00
54994;BME280;40891;47.242;8.648;2023-07-30T02:11:01;96158.25;;;18.75;100.00
54994;BME280;40891;47.242;8.648;2023-07-30T02:13:26;96150.34;;;18.74;100.00
54994;BME280;40891;47.242;8.648;2023-07-30T02:15:52;96159.28;;;18.67;100.00
54994;BME280;40891;47.242;8.648;2023-07-30T02:18:17;96154.41;;;18.56;100.00
54994;BME280;40891;47.242;8.648;2023-07-30T02:20:42;96147.50;;;18.52;100.00
54994;BME280;40891;47.242;8.648;2023-07-30T02:23:08;96152.59;;;18.53;100.00
54994;BME280;40891;47.242;8.648;2023-07-30T02:25:34;96148.00;;;18.56;100.00
54994;BME280;40891;47.242;8.648;2023-07-30T02:27:59;96144.69;;;18.57;100.00
54994;BME280;40891;47.242;8.648;2023-07-30T02:30:26;96151.09;;;18.52;100.00
54994;BME280;40891;47.242;8.648;2023-07-30T02:32:51;96145.94;;;18.51;100.00
54994;BME280;40891;47.242;8.648;2023-07-30T02:35:16;96154.94;;;18.55;100.00
54994;BME280;40891;47.242;8.648;2023-07-30T02:37:42;96159.25;;;18.45;100.00
54994;BME280;40891;47.242;8.648;2023-07-30T02:40:07;96154.13;;;18.43;100.00
54994;BME280;40891;47.242;8.648;2023-07-30T02:42:33;96155.44;;;18.53;100.00
54994;BME280;40891;47.242;8.648;2023-07-30T02:44:58;96149.56;;;18.57;100.00
54994;BME280;40891;47.242;8.648;2023-07-30T02:47:23;96158.50;;;18.55;100.00
54994;BME280;40891;47.242;8.648;2023-07-30T02:49:50;96159.53;;;18.47;100.00
54994;BME280;40891;47.242;8.648;2023-07-30T02:52:15;96156.94;;;18.43;100.00
54994;BME280;40891;47.242;8.648;2023-07-30T02:54:41;96158.47;;;18.44;100.00
54994;BME280;40891;47.242;8.648;2023-07-30T02:57:06;96159.00;;;18.48;100.00
54994;BME280;40891;47.242;8.648;2023-07-30T02:59:31;96158.75;;;18.52;100.00
54994;BME280;40891;47.242;8.648;2023-07-30T03:02:00;96156.97;;;18.49;100.00
54994;BME280;40891;47.242;8.648;2023-07-30T03:04:26;96157.22;;;18.56;100.00
54994;BME280;40891;47.242;8.648;2023-07-30T03:06:51;96159.78;;;18.65;100.00
54994;BME280;40891;47.242;8.648;2023-07-30T03:09:16;96158.25;;;18.70;100.00
54994;BME280;40891;47.242;8.648;2023-07-30T03:11:42;96156.97;;;18.71;100.00
54994;BME280;40891;47.242;8.648;2023-07-30T03:14:07;96156.72;;;18.74;100.00
54994;BME280;40891;47.242;8.648;2023-07-30T03:16:32;96159.53;;;18.74;100.00
54994;BME280;40891;47.242;8.648;2023-07-30T03:18:57;96170.03;;;18.74;100.00
54994;BME280;40891;47.242;8.648;2023-07-30T03:21:23;96166.44;;;18.68;100.00
54994;BME280;40891;47.242;8.648;2023-07-30T03:23:48;96171.84;;;18.71;100.00
54994;BME280;40891;47.242;8.648;2023-07-30T03:26:14;96161.59;;;18.68;100.00
54994;BME280;40891;47.242;8.648;2023-07-30T03:28:39;96163.88;;;18.70;100.00
54994;BME280;40891;47.242;8.648;2023-07-30T03:31:04;96163.88;;;18.70;100.00
54994;BME280;40891;47.242;8.648;2023-07-30T03:33:30;96164.66;;;18.70;100.00
54994;BME280;40891;47.242;8.648;2023-07-30T03:35:56;96171.31;;;18.67;100.00
54994;BME280;40891;47.242;8.648;2023-07-30T03:38:21;96170.81;;;18.69;100.00
54994;BME280;40891;47.242;8.648;2023-07-30T03:40:46;96175.16;;;18.75;100.00
54994;BME280;40891;47.242;8.648;2023-07-30T03:43:11;96172.34;;;18.75;100.00
54994;BME280;40891;47.242;8.648;2023-07-30T03:45:37;96176.69;;;18.82;100.00
54994;BME280;40891;47.242;8.648;2023-07-30T03:48:02;96175.41;;;18.77;100.00
54994;BME280;40891;47.242;8.648;2023-07-30T03:50:27;96177.47;;;18.82;100.00
54994;BME280;40891;47.242;8.648;2023-07-30T03:52:53;96176.69;;;18.82;100.00
54994;BME280;40891;47.242;8.648;2023-07-30T03:55:18;96181.28;;;18.79;100.00
54994;BME280;40891;47.242;8.648;2023-07-30T03:57:43;96183.63;;;18.81;100.00
54994;BME280;40891;47.242;8.648;2023-07-30T04:00:09;96178.75;;;18.76;100.00
54994;BME280;40891;47.242;8.648;2023-07-30T04:02:34;96185.63;;;18.69;100.00
54994;BME280;40891;47.242;8.648;2023-07-30T04:04:59;96188.22;;;18.67;100.00
54994;BME280;40891;47.242;8.648;2023-07-30T04:07:25;96188.72;;;18.60;100.00
54994;BME280;40891;47.242;8.648;2023-07-30T04:09:50;96188.97;;;18.62;100.00
54994;BME280;40891;47.242;8.648;2023-07-30T04:12:15;96182.34;;;18.60;100.00
54994;BME280;40891;47.242;8.648;2023-07-30T04:14:40;96197.19;;;18.66;100.00
54994;BME280;40891;47.242;8.648;2023-07-30T04:17:06;96196.41;;;18.71;100.00
54994;BME280;40891;47.242;8.648;2023-07-30T04:19:31;96193.34;;;18.85;100.00
54994;BME280;40891;47.242;8.648;2023-07-30T04:21:56;96190.78;;;18.87;100.00
54994;BME280;40891;47.242;8.648;2023-07-30T04:24:22;96183.63;;;18.97;100.00
54994;BME280;40891;47.242;8.648;2023-07-30T04:26:47;96182.56;;;19.00;100.00
54994;BME280;40891;47.242;8.648;2023-07-30T04:29:12;96193.31;;;18.91;100.00
54994;BME280;40891;47.242;8.648;2023-07-30T04:31:39;96194.88;;;18.86;100.00
54994;BME280;40891;47.242;8.648;2023-07-30T04:34:04;96195.13;;;19.11;100.00
54994;BME280;40891;47.242;8.648;2023-07-30T04:36:30;96196.41;;;18.98;100.00
54994;BME280;40891;47.242;8.648;2023-07-30T04:38:55;96203.56;;;19.11;100.00
54994;BME280;40891;47.242;8.648;2023-07-30T04:41:20;96213.81;;;19.02;100.00
54994;BME280;40891;47.242;8.648;2023-07-30T04:43:45;96217.16;;;19.07;100.00
54994;BME280;40891;47.242;8.648;2023-07-30T04:46:11;96199.72;;;19.08;100.00
54994;BME280;40891;47.242;8.648;2023-07-30T04:48:37;96202.78;;;19.27;100.00
54994;BME280;40891;47.242;8.648;2023-07-30T04:51:02;96206.91;;;19.15;100.00
54994;BME280;40891;47.242;8.648;2023-07-30T04:53:27;96207.94;;;19.12;100.00
54994;BME280;40891;47.242;8.648;2023-07-30T04:55:56;96201.00;;;19.13;100.00
54994;BME280;40891;47.242;8.648;2023-07-30T04:58:24;96214.84;;;19.11;100.00
54994;BME280;40891;47.242;8.648;2023-07-30T05:00:49;96209.72;;;19.15;100.00
54994;BME280;40891;47.242;8.648;2023-07-30T05:03:15;96217.91;;;19.13;100.00
54994;BME280;40891;47.242;8.648;2023-07-30T05:05:41;96220.75;;;19.13;100.00
54994;BME280;40891;47.242;8.648;2023-07-30T05:08:06;96212.53;;;19.26;100.00
54994;BME280;40891;47.242;8.648;2023-07-30T05:10:31;96213.28;;;19.32;100.00
54994;BME280;40891;47.242;8.648;2023-07-30T05:12:56;96223.81;;;19.15;100.00
54994;BME280;40891;47.242;8.648;2023-07-30T05:15:22;96232.00;;;19.24;100.00
54994;BME280;40891;47.242;8.648;2023-07-30T05:17:47;96231.25;;;19.12;100.00
54994;BME280;40891;47.242;8.648;2023-07-30T05:20:12;96236.88;;;19.18;100.00
54994;BME280;40891;47.242;8.648;2023-07-30T05:22:38;96234.59;;;19.16;100.00
54994;BME280;40891;47.242;8.648;2023-07-30T05:25:03;96231.75;;;19.22;100.00
54994;BME280;40891;47.242;8.648;2023-07-30T05:27:29;96236.88;;;19.29;100.00
54994;BME280;40891;47.242;8.648;2023-07-30T05:29:56;96220.72;;;19.35;100.00
54994;BME280;40891;47.242;8.648;2023-07-30T05:32:21;96222.78;;;19.29;100.00
54994;BME280;40891;47.242;8.648;2023-07-30T05:34:47;96226.13;;;19.33;100.00
54994;BME280;40891;47.242;8.648;2023-07-30T05:37:12;96218.44;;;19.39;100.00
54994;BME280;40891;47.242;8.648;2023-07-30T05:39:37;96233.03;;;19.48;100.00
54994;BME280;40891;47.242;8.648;2023-07-30T05:42:03;96237.91;;;19.59;100.00
54994;BME280;40891;47.242;8.648;2023-07-30T05:44:28;96239.94;;;19.53;100.00
54994;BME280;40891;47.242;8.648;2023-07-30T05:46:53;96242.50;;;19.51;100.00
54994;BME280;40891;47.242;8.648;2023-07-30T05:49:19;96247.63;;;19.58;100.00
54994;BME280;40891;47.242;8.648;2023-07-30T05:51:44;96246.34;;;19.53;100.00
54994;BME280;40891;47.242;8.648;2023-07-30T05:54:10;96247.88;;;19.54;100.00
54994;BME280;40891;47.242;8.648;2023-07-30T05:56:35;96253.28;;;19.58;100.00
54994;BME280;40891;47.242;8.648;2023-07-30T05:59:00;96250.97;;;19.56;100.00
54994;BME280;40891;47.242;8.648;2023-07-30T06:01:25;96250.97;;;19.51;100.00
54994;BME280;40891;47.242;8.648;2023-07-30T06:03:51;96245.59;;;19.53;100.00
54994;BME280;40891;47.242;8.648;2023-07-30T06:06:16;96238.44;;;19.52;100.00
54994;BME280;40891;47.242;8.648;2023-07-30T06:08:41;96248.16;;;19.51;100.00
54994;BME280;40891;47.242;8.648;2023-07-30T06:11:07;96250.41;;;19.69;100.00
54994;BME280;40891;47.242;8.648;2023-07-30T06:13:32;96247.84;;;19.77;100.00
54994;BME280;40891;47.242;8.648;2023-07-30T06:15:57;96234.50;;;19.77;100.00
54994;BME280;40891;47.242;8.648;2023-07-30T06:18:23;96238.53;;;19.98;100.00
54994;BME280;40891;47.242;8.648;2023-07-30T06:20:48;96243.63;;;20.05;100.00
54994;BME280;40891;47.242;8.648;2023-07-30T06:23:13;96234.88;;;20.09;100.00
54994;BME280;40891;47.242;8.648;2023-07-30T06:25:39;96238.19;;;20.18;100.00
54994;BME280;40891;47.242;8.648;2023-07-30T06:28:05;96246.41;;;20.16;100.00
54994;BME280;40891;47.242;8.648;2023-07-30T06:30:31;96244.63;;;20.24;100.00
54994;BME280;40891;47.242;8.648;2023-07-30T06:32:57;96248.69;;;20.29;100.00
54994;BME280;40891;47.242;8.648;2023-07-30T06:35:23;96256.09;;;20.38;100.00
54994;BME280;40891;47.242;8.648;2023-07-30T06:37:49;96259.91;;;20.46;100.00
54994;BME280;40891;47.242;8.648;2023-07-30T06:40:14;96271.19;;;20.51;100.00
54994;BME280;40891;47.242;8.648;2023-07-30T06:42:39;96274.25;;;20.53;100.00
54994;BME280;40891;47.242;8.648;2023-07-30T06:45:05;96268.00;;;20.66;100.00
54994;BME280;40891;47.242;8.648;2023-07-30T06:47:31;96275.31;;;20.91;99.39
54994;BME280;40891;47.242;8.648;2023-07-30T06:49:56;96268.00;;;21.12;96.83
54994;BME280;40891;47.242;8.648;2023-07-30T06:52:21;96283.75;;;20.96;96.76
54994;BME280;40891;47.242;8.648;2023-07-30T06:54:46;96279.22;;;20.82;98.25
54994;BME280;40891;47.242;8.648;2023-07-30T06:57:12;96287.41;;;20.91;99.62
54994;BME280;40891;47.242;8.648;2023-07-30T06:59:37;96287.56;;;21.10;97.21
54994;BME280;40891;47.242;8.648;2023-07-30T07:02:02;96291.94;;;21.41;94.59
54994;BME280;40891;47.242;8.648;2023-07-30T07:04:30;96282.00;;;21.58;93.76
54994;BME280;40891;47.242;8.648;2023-07-30T07:06:55;96286.13;;;21.82;90.54
54994;BME280;40891;47.242;8.648;2023-07-30T07:09:20;96282.00;;;21.88;90.11
54994;BME280;40891;47.242;8.648;2023-07-30T07:11:46;96284.84;;;21.83;87.95
54994;BME280;40891;47.242;8.648;2023-07-30T07:14:11;96284.28;;;21.90;88.89
54994;BME280;40891;47.242;8.648;2023-07-30T07:16:36;96294.16;;;21.78;87.84
54994;BME280;40891;47.242;8.648;2023-07-30T07:19:01;96291.38;;;22.02;89.86
54994;BME280;40891;47.242;8.648;2023-07-30T07:21:27;96291.91;;;22.00;90.82
54994;BME280;40891;47.242;8.648;2023-07-30T07:23:52;96296.72;;;22.05;90.61
54994;BME280;40891;47.242;8.648;2023-07-30T07:26:18;96298.78;;;21.81;89.47
54994;BME280;40891;47.242;8.648;2023-07-30T07:28:43;96298.22;;;21.88;85.96
54994;BME280;40891;47.242;8.648;2023-07-30T07:31:08;96302.72;;;21.72;88.08
54994;BME280;40891;47.242;8.648;2023-07-30T07:33:34;96297.44;;;21.57;90.05
54994;BME280;40891;47.242;8.648;2023-07-30T07:36:07;96296.81;;;21.70;90.03
54994;BME280;40891;47.242;8.648;2023-07-30T07:38:33;96297.72;;;21.84;90.97
54994;BME280;40891;47.242;8.648;2023-07-30T07:41:00;96297.66;;;21.89;89.44
54994;BME280;40891;47.242;8.648;2023-07-30T07:43:26;96306.47;;;21.86;87.16
54994;BME280;40891;47.242;8.648;2023-07-30T07:45:52;96300.00;;;21.91;87.67
54994;BME280;40891;47.242;8.648;2023-07-30T07:48:17;96298.22;;;21.88;88.95
54994;BME280;40891;47.242;8.648;2023-07-30T07:50:42;96289.81;;;22.01;89.63
54994;BME280;40891;47.242;8.648;2023-07-30T07:53:08;96288.50;;;21.78;88.32
54994;BME280;40891;47.242;8.648;2023-07-30T07:55:33;96289.59;;;21.99;86.32
54994;BME280;40891;47.242;8.648;2023-07-30T07:57:58;96280.72;;;22.08;86.15
54994;BME280;40891;47.242;8.648;2023-07-30T08:00:24;96281.13;;;22.17;87.23
54994;BME280;40891;47.242;8.648;2023-07-30T08:02:49;96280.56;;;22.43;86.12
54994;BME280;40891;47.242;8.648;2023-07-30T08:05:14;96279.22;;;22.50;83.96
54994;BME280;40891;47.242;8.648;2023-07-30T08:07:40;96281.72;;;22.53;85.72
54994;BME280;40891;47.242;8.648;2023-07-30T08:10:05;96271.25;;;22.67;85.29
54994;BME280;40891;47.242;8.648;2023-07-30T08:12:32;96276.78;;;22.59;85.31
54994;BME280;40891;47.242;8.648;2023-07-30T08:14:58;96270.56;;;22.79;84.47
54994;BME280;40891;47.242;8.648;2023-07-30T08:17:24;96263.66;;;22.93;85.27
54994;BME280;40891;47.242;8.648;2023-07-30T08:19:49;96271.25;;;23.04;80.73
54994;BME280;40891;47.242;8.648;2023-07-30T08:22:14;96275.19;;;23.33;80.60
54994;BME280;40891;47.242;8.648;2023-07-30T08:24:39;96262.91;;;23.43;80.77
54994;BME280;40891;47.242;8.648;2023-07-30T08:27:05;96269.75;;;23.35;81.67
54994;BME280;40891;47.242;8.648;2023-07-30T08:29:30;96277.19;;;23.38;83.03
54994;BME280;40891;47.242;8.648;2023-07-30T08:31:55;96273.63;;;23.19;83.60
54994;BME280;40891;47.242;8.648;2023-07-30T08:34:21;96263.81;;;23.01;83.60
54994;BME280;40891;47.242;8.648;2023-07-30T08:36:47;96262.34;;;23.13;82.63
54994;BME280;40891;47.242;8.648;2023-07-30T08:39:13;96263.56;;;23.18;79.84
54994;BME280;40891;47.242;8.648;2023-07-30T08:41:38;96267.63;;;23.54;81.00
54994;BME280;40891;47.242;8.648;2023-07-30T08:44:04;96267.75;;;23.61;80.51
54994;BME280;40891;47.242;8.648;2023-07-30T08:46:29;96272.63;;;23.48;82.11
54994;BME280;40891;47.242;8.648;2023-07-30T08:48:54;96261.84;;;23.28;83.79
54994;BME280;40891;47.242;8.648;2023-07-30T08:51:22;96268.66;;;22.87;82.11
54994;BME280;40891;47.242;8.648;2023-07-30T08:53:49;96270.63;;;22.55;84.21
54994;BME280;40891;47.242;8.648;2023-07-30T08:56:15;96268.91;;;22.28;85.87
54994;BME280;40891;47.242;8.648;2023-07-30T08:58:41;96266.28;;;22.11;86.70
54994;BME280;40891;47.242;8.648;2023-07-30T09:01:09;96267.75;;;21.94;86.77
54994;BME280;40891;47.242;8.648;2023-07-30T09:03:38;96278.16;;;21.86;88.83
54994;BME280;40891;47.242;8.648;2023-07-30T09:06:04;96288.81;;;21.74;89.71
54994;BME280;40891;47.242;8.648;2023-07-30T09:08:29;96278.13;;;21.61;91.16
54994;BME280;40891;47.242;8.648;2023-07-30T09:10:55;96275.63;;;21.52;95.33
54994;BME280;40891;47.242;8.648;2023-07-30T09:13:21;96272.41;;;21.67;94.81
54994;BME280;40891;47.242;8.648;2023-07-30T09:15:48;96273.75;;;21.90;94.19
54994;BME280;40891;47.242;8.648;2023-07-30T09:18:17;96268.16;;;22.46;95.54
54994;BME280;40891;47.242;8.648;2023-07-30T09:20:43;96268.72;;;23.00;88.47
54994;BME280;40891;47.242;8.648;2023-07-30T09:23:09;96273.50;;;22.92;88.16
54994;BME280;40891;47.242;8.648;2023-07-30T09:25:36;96272.97;;;22.75;86.94
54994;BME280;40891;47.242;8.648;2023-07-30T09:28:02;96278.19;;;22.28;86.58
54994;BME280;40891;47.242;8.648;2023-07-30T09:30:27;96287.28;;;22.21;86.72
54994;BME280;40891;47.242;8.648;2023-07-30T09:32:55;96289.13;;;21.95;85.35
54994;BME280;40891;47.242;8.648;2023-07-30T09:35:22;96290.50;;;21.83;90.87
54994;BME280;40891;47.242;8.648;2023-07-30T09:37:50;96298.47;;;21.60;90.54
54994;BME280;40891;47.242;8.648;2023-07-30T09:40:31;96304.81;;;21.66;88.68
54994;BME280;40891;47.242;8.648;2023-07-30T09:42:57;96314.84;;;21.67;87.53
54994;BME280;40891;47.242;8.648;2023-07-30T09:45:24;96316.91;;;21.66;87.57
54994;BME280;40891;47.242;8.648;2023-07-30T09:47:51;96319.00;;;21.96;89.73
54994;BME280;40891;47.242;8.648;2023-07-30T09:50:17;96320.53;;;22.64;85.32
54994;BME280;40891;47.242;8.648;2023-07-30T09:52:43;96310.81;;;22.96;81.96
54994;BME280;40891;47.242;8.648;2023-07-30T09:55:09;96316.28;;;23.45;80.00
54994;BME280;40891;47.242;8.648;2023-07-30T09:57:38;96310.56;;;24.08;73.49
54994;BME280;40891;47.242;8.648;2023-07-30T10:00:05;96308.53;;;23.77;74.33
54994;BME280;40891;47.242;8.648;2023-07-30T10:02:31;96320.69;;;23.27;74.18
54994;BME280;40891;47.242;8.648;2023-07-30T10:04:59;96323.53;;;22.71;75.66
54994;BME280;40891;47.242;8.648;2023-07-30T10:07:26;96318.47;;;22.64;75.67
54994;BME280;40891;47.242;8.648;2023-07-30T10:09:55;96333.56;;;22.48;77.18
54994;BME280;40891;47.242;8.648;2023-07-30T10:12:28;96324.63;;;22.20;78.48
54994;BME280;40891;47.242;8.648;2023-07-30T10:14:56;96337.38;;;22.32;78.68
54994;BME280;40891;47.242;8.648;2023-07-30T10:17:22;96336.47;;;22.24;79.72
54994;BME280;40891;47.242;8.648;2023-07-30T10:19:48;96349.19;;;22.36;78.91
54994;BME280;40891;47.242;8.648;2023-07-30T10:24:40;96358.84;;;22.46;78.63
54994;BME280;40891;47.242;8.648;2023-07-30T10:27:06;96355.34;;;22.40;79.46
54994;BME280;40891;47.242;8.648;2023-07-30T10:29:34;96343.84;;;22.94;77.31
54994;BME280;40891;47.242;8.648;2023-07-30T10:32:01;96347.41;;;22.57;78.82
54994;BME280;40891;47.242;8.648;2023-07-30T10:34:43;96353.59;;;22.80;79.51
54994;BME280;40891;47.242;8.648;2023-07-30T10:37:09;96339.66;;;24.14;75.25
54994;BME280;40891;47.242;8.648;2023-07-30T10:39:34;96339.44;;;24.65;70.36
54994;BME280;40891;47.242;8.648;2023-07-30T10:42:00;96335.03;;;24.90;67.04
54994;BME280;40891;47.242;8.648;2023-07-30T10:44:33;96330.00;;;25.30;68.65
54994;BME280;40891;47.242;8.648;2023-07-30T10:47:00;96332.72;;;25.90;66.07
54994;BME280;40891;47.242;8.648;2023-07-30T10:49:26;96335.91;;;26.07;65.91
54994;BME280;40891;47.242;8.648;2023-07-30T10:51:53;96344.50;;;26.91;62.01
54994;BME280;40891;47.242;8.648;2023-07-30T10:54:19;96335.72;;;27.33;60.85
54994;BME280;40891;47.242;8.648;2023-07-30T10:56:45;96344.84;;;27.31;56.29
54994;BME280;40891;47.242;8.648;2023-07-30T10:59:12;96337.78;;;28.13;57.92
54994;BME280;40891;47.242;8.648;2023-07-30T11:01:39;96325.16;;;28.62;55.97
54994;BME280;40891;47.242;8.648;2023-07-30T11:06:34;96318.69;;;28.46;55.80
54994;BME280;40891;47.242;8.648;2023-07-30T11:08:59;96327.84;;;27.84;56.27
54994;BME280;40891;47.242;8.648;2023-07-30T11:11:24;96321.50;;;27.55;58.23
54994;BME280;40891;47.242;8.648;2023-07-30T11:13:51;96320.53;;;26.94;59.87
54994;BME280;40891;47.242;8.648;2023-07-30T11:16:16;96317.44;;;26.85;60.89
54994;BME280;40891;47.242;8.648;2023-07-30T11:18:42;96312.78;;;26.74;58.90
54994;BME280;40891;47.242;8.648;2023-07-30T11:21:13;96318.50;;;26.74;58.15
54994;BME280;40891;47.242;8.648;2023-07-30T11:23:40;96325.09;;;26.97;55.37
54994;BME280;40891;47.242;8.648;2023-07-30T11:26:08;96321.59;;;27.27;56.47
54994;BME280;40891;47.242;8.648;2023-07-30T11:28:39;96317.97;;;27.27;54.54
54994;BME280;40891;47.242;8.648;2023-07-30T11:31:15;96312.16;;;26.96;52.68
54994;BME280;40891;47.242;8.648;2023-07-30T11:33:43;96304.97;;;27.84;50.13
54994;BME280;40891;47.242;8.648;2023-07-30T11:36:17;96312.78;;;28.29;47.63
54994;BME280;40891;47.242;8.648;2023-07-30T11:38:44;96309.19;;;29.46;48.22
54994;BME280;40891;47.242;8.648;2023-07-30T11:41:10;96321.66;;;28.86;46.77
54994;BME280;40891;47.242;8.648;2023-07-30T11:43:42;96312.59;;;28.04;48.97
54994;BME280;40891;47.242;8.648;2023-07-30T11:46:15;96321.00;;;28.25;50.32
54994;BME280;40891;47.242;8.648;2023-07-30T11:48:46;96316.59;;;28.31;51.10
54994;BME280;40891;47.242;8.648;2023-07-30T11:51:20;96311.63;;;27.72;50.07
54994;BME280;40891;47.242;8.648;2023-07-30T11:53:54;96317.34;;;27.06;51.08
54994;BME280;40891;47.242;8.648;2023-07-30T11:56:22;96321.91;;;26.37;53.98
54994;BME280;40891;47.242;8.648;2023-07-30T11:58:49;96331.16;;;26.30;56.85
54994;BME280;40891;47.242;8.648;2023-07-30T12:01:16;96326.66;;;25.73;55.30
54994;BME280;40891;47.242;8.648;2023-07-30T12:03:41;96323.22;;;26.36;52.59
54994;BME280;40891;47.242;8.648;2023-07-30T12:06:07;96307.03;;;27.02;51.09
54994;BME280;40891;47.242;8.648;2023-07-30T12:08:34;96318.31;;;27.97;48.35
54994;BME280;40891;47.242;8.648;2023-07-30T12:11:05;96308.56;;;29.55;44.40
54994;BME280;40891;47.242;8.648;2023-07-30T12:13:32;96302.03;;;30.36;45.16
54994;BME280;40891;47.242;8.648;2023-07-30T12:15:57;96299.75;;;31.64;41.08
54994;BME280;40891;47.242;8.648;2023-07-30T12:18:24;96292.56;;;32.55;38.93
54994;BME280;40891;47.242;8.648;2023-07-30T12:20:50;96295.00;;;32.68;37.38
54994;BME280;40891;47.242;8.648;2023-07-30T12:23:16;96295.31;;;32.72;36.85
54994;BME280;40891;47.242;8.648;2023-07-30T12:25:42;96301.75;;;32.44;34.23
54994;BME280;40891;47.242;8.648;2023-07-30T12:28:07;96293.16;;;33.58;34.43
54994;BME280;40891;47.242;8.648;2023-07-30T12:30:33;96299.69;;;32.73;36.06
54994;BME280;40891;47.242;8.648;2023-07-30T12:32:58;96297.13;;;34.03;34.54
54994;BME280;40891;47.242;8.648;2023-07-30T12:35:23;96300.78;;;34.04;33.11
54994;BME280;40891;47.242;8.648;2023-07-30T12:37:49;96286.81;;;34.83;31.22
54994;BME280;40891;47.242;8.648;2023-07-30T12:40:14;96277.63;;;34.86;31.77
54994;BME280;40891;47.242;8.648;2023-07-30T12:42:40;96294.66;;;34.40;32.20
54994;BME280;40891;47.242;8.648;2023-07-30T12:45:05;96283.72;;;34.08;32.93
54994;BME280;40891;47.242;8.648;2023-07-30T12:47:31;96282.25;;;35.34;32.59
54994;BME280;40891;47.242;8.648;2023-07-30T12:49:57;96287.25;;;33.97;34.16
54994;BME280;40891;47.242;8.648;2023-07-30T12:52:22;96283.47;;;32.77;34.93
54994;BME280;40891;47.242;8.648;2023-07-30T12:54:47;96276.06;;;33.82;33.28